sensor_id;sensor_type;location;lat;lon;timestamp;P1;durP1;ratioP1;P2;durP2;ratioP2
60730;SDS011;46580;52.114;11.674;2022-09-21T00:00:42;3.00;;;1.00;;
60730;SDS011;46580;52.114;11.674;2022-09-21T00:03:08;3.83;;;1.63;;
60730;SDS011;46580;52.114;11.674;2022-09-21T00:05:34;6.27;;;1.63;;
60730;SDS011;46580;52.114;11.674;2022-09-21T00:08:02;3.93;;;1.50;;
60730;SDS011;46580;52.114;11.674;2022-09-21T00:10:29;7.27;;;2.30;;
60730;SDS011;46580;52.114;11.674;2022-09-21T00:12:55;4.37;;;2.10;;
60730;SDS011;46580;52.114;11.674;2022-09-21T00:15:23;5.33;;;1.50;;
60730;SDS011;46580;52.114;11.674;2022-09-21T00:17:52;3.23;;;1.30;;
60730;SDS011;46580;52.114;11.674;2022-09-21T00:20:18;2.80;;;1.03;;
60730;SDS011;46580;52.114;11.674;2022-09-21T00:22:44;2.03;;;1.20;;
60730;SDS011;46580;52.114;11.674;2022-09-21T00:25:10;4.50;;;1.10;;
60730;SDS011;46580;52.114;11.674;2022-09-21T00:27:35;2.33;;;1.20;;
60730;SDS011;46580;52.114;11.674;2022-09-21T00:30:01;3.60;;;1.23;;
60730;SDS011;46580;52.114;11.674;2022-09-21T00:32:30;2.37;;;1.07;;
60730;SDS011;46580;52.114;11.674;2022-09-21T00:34:56;3.93;;;1.43;;
60730;SDS011;46580;52.114;11.674;2022-09-21T00:37:22;2.90;;;0.90;;
60730;SDS011;46580;52.114;11.674;2022-09-21T00:39:48;5.63;;;1.30;;
60730;SDS011;46580;52.114;11.674;2022-09-21T00:42:17;3.43;;;1.00;;
60730;SDS011;46580;52.114;11.674;2022-09-21T00:44:48;1.33;;;0.77;;
60730;SDS011;46580;52.114;11.674;2022-09-21T00:47:14;2.37;;;1.27;;
60730;SDS011;46580;52.114;11.674;2022-09-21T00:49:41;1.77;;;1.07;;
60730;SDS011;46580;52.114;11.674;2022-09-21T00:52:08;5.30;;;1.10;;
60730;SDS011;46580;52.114;11.674;2022-09-21T00:54:41;2.27;;;1.20;;
60730;SDS011;46580;52.114;11.674;2022-09-21T00:57:10;2.73;;;1.00;;
60730;SDS011;46580;52.114;11.674;2022-09-21T00:59:38;4.00;;;1.33;;
60730;SDS011;46580;52.114;11.674;2022-09-21T01:02:04;2.63;;;1.33;;
60730;SDS011;46580;52.114;11.674;2022-09-21T01:04:30;1.53;;;1.00;;
60730;SDS011;46580;52.114;11.674;2022-09-21T01:06:57;1.07;;;0.83;;
60730;SDS011;46580;52.114;11.674;2022-09-21T01:09:24;1.77;;;1.13;;
60730;SDS011;46580;52.114;11.674;2022-09-21T01:14:44;4.40;;;1.33;;
60730;SDS011;46580;52.114;11.674;2022-09-21T01:30:45;2.63;;;1.20;;
60730;SDS011;46580;52.114;11.674;2022-09-21T01:33:14;1.13;;;0.93;;
60730;SDS011;46580;52.114;11.674;2022-09-21T01:35:47;6.60;;;1.30;;
60730;SDS011;46580;52.114;11.674;2022-09-21T01:38:18;3.03;;;1.10;;
60730;SDS011;46580;52.114;11.674;2022-09-21T01:40:52;2.23;;;0.97;;
60730;SDS011;46580;52.114;11.674;2022-09-21T01:43:25;2.80;;;0.87;;
60730;SDS011;46580;52.114;11.674;2022-09-21T01:45:55;3.20;;;1.20;;
60730;SDS011;46580;52.114;11.674;2022-09-21T01:48:26;2.40;;;1.20;;
60730;SDS011;46580;52.114;11.674;2022-09-21T01:50:53;2.00;;;1.00;;
60730;SDS011;46580;52.114;11.674;2022-09-21T01:53:26;1.80;;;0.80;;
60730;SDS011;46580;52.114;11.674;2022-09-21T01:55:56;3.10;;;0.90;;
60730;SDS011;46580;52.114;11.674;2022-09-21T01:58:44;4.43;;;0.80;;
60730;SDS011;46580;52.114;11.674;2022-09-21T02:01:17;3.10;;;1.10;;
60730;SDS011;46580;52.114;11.674;2022-09-21T02:03:58;2.73;;;0.90;;
60730;SDS011;46580;52.114;11.674;2022-09-21T02:06:27;4.60;;;1.23;;
60730;SDS011;46580;52.114;11.674;2022-09-21T02:08:54;3.80;;;1.37;;
60730;SDS011;46580;52.114;11.674;2022-09-21T02:11:20;4.43;;;1.10;;
60730;SDS011;46580;52.114;11.674;2022-09-21T02:13:47;3.27;;;1.13;;
60730;SDS011;46580;52.114;11.674;2022-09-21T02:16:23;4.97;;;1.10;;
60730;SDS011;46580;52.114;11.674;2022-09-21T02:24:46;2.30;;;0.93;;
60730;SDS011;46580;52.114;11.674;2022-09-21T02:30:06;2.20;;;1.07;;
60730;SDS011;46580;52.114;11.674;2022-09-21T02:35:07;2.23;;;1.30;;
60730;SDS011;46580;52.114;11.674;2022-09-21T02:43:22;2.90;;;1.60;;
60730;SDS011;46580;52.114;11.674;2022-09-21T02:45:59;2.50;;;1.20;;
60730;SDS011;46580;52.114;11.674;2022-09-21T02:48:33;2.83;;;1.63;;
60730;SDS011;46580;52.114;11.674;2022-09-21T02:51:08;2.90;;;1.40;;
60730;SDS011;46580;52.114;11.674;2022-09-21T02:53:38;2.50;;;1.30;;
60730;SDS011;46580;52.114;11.674;2022-09-21T02:56:05;1.93;;;1.20;;
60730;SDS011;46580;52.114;11.674;2022-09-21T02:58:40;1.93;;;1.10;;
60730;SDS011;46580;52.114;11.674;2022-09-21T03:01:09;4.67;;;1.30;;
60730;SDS011;46580;52.114;11.674;2022-09-21T03:03:36;2.10;;;1.00;;
60730;SDS011;46580;52.114;11.674;2022-09-21T03:06:02;4.70;;;1.83;;
60730;SDS011;46580;52.114;11.674;2022-09-21T03:08:27;3.53;;;1.53;;
60730;SDS011;46580;52.114;11.674;2022-09-21T03:10:54;4.53;;;1.53;;
60730;SDS011;46580;52.114;11.674;2022-09-21T03:13:19;1.67;;;1.20;;
60730;SDS011;46580;52.114;11.674;2022-09-21T03:15:45;1.77;;;0.90;;
60730;SDS011;46580;52.114;11.674;2022-09-21T03:18:11;2.47;;;1.17;;
60730;SDS011;46580;52.114;11.674;2022-09-21T03:20:37;1.80;;;1.13;;
60730;SDS011;46580;52.114;11.674;2022-09-21T03:23:04;3.17;;;1.50;;
60730;SDS011;46580;52.114;11.674;2022-09-21T03:25:30;2.47;;;1.33;;
60730;SDS011;46580;52.114;11.674;2022-09-21T03:27:56;3.83;;;1.40;;
60730;SDS011;46580;52.114;11.674;2022-09-21T03:30:22;1.80;;;0.90;;
60730;SDS011;46580;52.114;11.674;2022-09-21T03:32:50;1.37;;;1.23;;
60730;SDS011;46580;52.114;11.674;2022-09-21T03:35:18;2.83;;;1.10;;
60730;SDS011;46580;52.114;11.674;2022-09-21T03:37:46;3.97;;;1.27;;
60730;SDS011;46580;52.114;11.674;2022-09-21T03:40:11;1.93;;;1.27;;
60730;SDS011;46580;52.114;11.674;2022-09-21T03:42:38;2.40;;;1.13;;
60730;SDS011;46580;52.114;11.674;2022-09-21T03:45:04;1.47;;;1.10;;
60730;SDS011;46580;52.114;11.674;2022-09-21T03:47:30;3.07;;;1.10;;
60730;SDS011;46580;52.114;11.674;2022-09-21T03:49:56;2.03;;;1.27;;
60730;SDS011;46580;52.114;11.674;2022-09-21T03:52:21;2.97;;;1.20;;
60730;SDS011;46580;52.114;11.674;2022-09-21T03:54:47;2.63;;;1.20;;
60730;SDS011;46580;52.114;11.674;2022-09-21T03:57:12;2.93;;;1.23;;
60730;SDS011;46580;52.114;11.674;2022-09-21T03:59:37;1.53;;;1.10;;
60730;SDS011;46580;52.114;11.674;2022-09-21T04:02:03;2.93;;;1.40;;
60730;SDS011;46580;52.114;11.674;2022-09-21T04:04:28;2.13;;;1.07;;
60730;SDS011;46580;52.114;11.674;2022-09-21T04:06:53;3.37;;;1.23;;
60730;SDS011;46580;52.114;11.674;2022-09-21T04:09:19;5.43;;;1.87;;
60730;SDS011;46580;52.114;11.674;2022-09-21T04:11:44;3.73;;;1.73;;
60730;SDS011;46580;52.114;11.674;2022-09-21T04:14:10;1.63;;;1.20;;
60730;SDS011;46580;52.114;11.674;2022-09-21T04:16:36;4.37;;;1.70;;
60730;SDS011;46580;52.114;11.674;2022-09-21T04:19:02;1.90;;;1.23;;
60730;SDS011;46580;52.114;11.674;2022-09-21T04:21:27;4.13;;;1.60;;
60730;SDS011;46580;52.114;11.674;2022-09-21T04:23:53;3.10;;;1.67;;
60730;SDS011;46580;52.114;11.674;2022-09-21T04:26:24;4.07;;;1.93;;
60730;SDS011;46580;52.114;11.674;2022-09-21T04:28:59;3.37;;;1.77;;
60730;SDS011;46580;52.114;11.674;2022-09-21T04:31:25;3.67;;;1.70;;
60730;SDS011;46580;52.114;11.674;2022-09-21T04:33:52;5.57;;;2.13;;
60730;SDS011;46580;52.114;11.674;2022-09-21T04:36:19;3.43;;;2.07;;
60730;SDS011;46580;52.114;11.674;2022-09-21T04:38:46;3.67;;;1.77;;
60730;SDS011;46580;52.114;11.674;2022-09-21T04:41:12;2.27;;;1.40;;
60730;SDS011;46580;52.114;11.674;2022-09-21T04:43:42;3.03;;;1.77;;
60730;SDS011;46580;52.114;11.674;2022-09-21T04:46:13;3.33;;;1.77;;
60730;SDS011;46580;52.114;11.674;2022-09-21T04:48:43;2.60;;;1.80;;
60730;SDS011;46580;52.114;11.674;2022-09-21T04:51:08;2.13;;;1.90;;
60730;SDS011;46580;52.114;11.674;2022-09-21T04:53:35;5.47;;;1.90;;
60730;SDS011;46580;52.114;11.674;2022-09-21T04:56:03;3.47;;;1.90;;
60730;SDS011;46580;52.114;11.674;2022-09-21T04:58:30;4.67;;;2.17;;
60730;SDS011;46580;52.114;11.674;2022-09-21T05:00:55;3.10;;;1.97;;
60730;SDS011;46580;52.114;11.674;2022-09-21T05:03:21;5.77;;;2.10;;
60730;SDS011;46580;52.114;11.674;2022-09-21T05:05:47;3.47;;;2.00;;
60730;SDS011;46580;52.114;11.674;2022-09-21T05:08:14;4.73;;;1.90;;
60730;SDS011;46580;52.114;11.674;2022-09-21T05:10:40;6.23;;;2.07;;
60730;SDS011;46580;52.114;11.674;2022-09-21T05:13:08;4.63;;;2.27;;
60730;SDS011;46580;52.114;11.674;2022-09-21T05:15:35;3.83;;;2.60;;
60730;SDS011;46580;52.114;11.674;2022-09-21T05:18:01;4.50;;;2.43;;
60730;SDS011;46580;52.114;11.674;2022-09-21T05:20:27;4.57;;;2.37;;
60730;SDS011;46580;52.114;11.674;2022-09-21T05:22:52;6.03;;;3.07;;
60730;SDS011;46580;52.114;11.674;2022-09-21T05:25:17;4.00;;;2.80;;
60730;SDS011;46580;52.114;11.674;2022-09-21T05:27:43;8.37;;;3.30;;
60730;SDS011;46580;52.114;11.674;2022-09-21T05:30:08;6.23;;;3.43;;
60730;SDS011;46580;52.114;11.674;2022-09-21T05:32:40;5.53;;;3.37;;
60730;SDS011;46580;52.114;11.674;2022-09-21T05:40:32;6.83;;;3.60;;
60730;SDS011;46580;52.114;11.674;2022-09-21T05:42:57;8.30;;;4.00;;
60730;SDS011;46580;52.114;11.674;2022-09-21T05:45:23;8.60;;;5.03;;
60730;SDS011;46580;52.114;11.674;2022-09-21T05:55:42;8.83;;;4.90;;
60730;SDS011;46580;52.114;11.674;2022-09-21T06:03:58;11.00;;;6.60;;
60730;SDS011;46580;52.114;11.674;2022-09-21T06:06:24;14.10;;;6.63;;
60730;SDS011;46580;52.114;11.674;2022-09-21T06:08:50;12.47;;;5.67;;
60730;SDS011;46580;52.114;11.674;2022-09-21T06:11:15;13.73;;;6.70;;
60730;SDS011;46580;52.114;11.674;2022-09-21T06:13:41;14.63;;;6.40;;
60730;SDS011;46580;52.114;11.674;2022-09-21T06:16:07;12.13;;;6.13;;
60730;SDS011;46580;52.114;11.674;2022-09-21T06:18:41;9.50;;;6.03;;
60730;SDS011;46580;52.114;11.674;2022-09-21T06:21:07;11.87;;;6.43;;
60730;SDS011;46580;52.114;11.674;2022-09-21T06:23:33;7.87;;;5.93;;
60730;SDS011;46580;52.114;11.674;2022-09-21T06:25:59;12.10;;;7.07;;
60730;SDS011;46580;52.114;11.674;2022-09-21T06:28:24;12.50;;;6.70;;
60730;SDS011;46580;52.114;11.674;2022-09-21T06:30:51;13.80;;;7.07;;
60730;SDS011;46580;52.114;11.674;2022-09-21T06:33:17;13.47;;;5.53;;
60730;SDS011;46580;52.114;11.674;2022-09-21T06:35:50;9.90;;;5.00;;
60730;SDS011;46580;52.114;11.674;2022-09-21T06:38:17;16.63;;;5.83;;
60730;SDS011;46580;52.114;11.674;2022-09-21T06:40:42;11.03;;;6.17;;
60730;SDS011;46580;52.114;11.674;2022-09-21T06:43:07;12.17;;;6.10;;
60730;SDS011;46580;52.114;11.674;2022-09-21T06:45:33;9.87;;;5.90;;
60730;SDS011;46580;52.114;11.674;2022-09-21T06:47:58;15.57;;;5.70;;
60730;SDS011;46580;52.114;11.674;2022-09-21T06:50:23;13.87;;;5.97;;
60730;SDS011;46580;52.114;11.674;2022-09-21T06:52:49;11.93;;;6.10;;
60730;SDS011;46580;52.114;11.674;2022-09-21T06:55:14;18.13;;;5.67;;
60730;SDS011;46580;52.114;11.674;2022-09-21T06:57:40;8.67;;;5.57;;
60730;SDS011;46580;52.114;11.674;2022-09-21T07:00:06;11.30;;;5.43;;
60730;SDS011;46580;52.114;11.674;2022-09-21T07:02:34;12.57;;;5.80;;
60730;SDS011;46580;52.114;11.674;2022-09-21T07:04:59;10.57;;;5.53;;
60730;SDS011;46580;52.114;11.674;2022-09-21T07:07:25;11.43;;;5.70;;
60730;SDS011;46580;52.114;11.674;2022-09-21T07:09:54;15.23;;;5.83;;
60730;SDS011;46580;52.114;11.674;2022-09-21T07:12:19;8.70;;;4.93;;
60730;SDS011;46580;52.114;11.674;2022-09-21T07:14:45;7.00;;;5.40;;
60730;SDS011;46580;52.114;11.674;2022-09-21T07:17:10;8.73;;;4.33;;
60730;SDS011;46580;52.114;11.674;2022-09-21T07:19:37;9.07;;;4.57;;
60730;SDS011;46580;52.114;11.674;2022-09-21T07:22:02;8.53;;;5.17;;
60730;SDS011;46580;52.114;11.674;2022-09-21T07:24:28;6.33;;;4.30;;
60730;SDS011;46580;52.114;11.674;2022-09-21T07:26:53;5.47;;;3.90;;
60730;SDS011;46580;52.114;11.674;2022-09-21T07:29:19;11.77;;;4.87;;
60730;SDS011;46580;52.114;11.674;2022-09-21T07:31:44;7.53;;;4.00;;
60730;SDS011;46580;52.114;11.674;2022-09-21T07:34:09;8.13;;;3.60;;
60730;SDS011;46580;52.114;11.674;2022-09-21T07:36:35;7.07;;;3.43;;
60730;SDS011;46580;52.114;11.674;2022-09-21T07:39:01;8.47;;;3.57;;
60730;SDS011;46580;52.114;11.674;2022-09-21T07:41:27;7.10;;;3.80;;
60730;SDS011;46580;52.114;11.674;2022-09-21T07:43:52;5.47;;;3.80;;
60730;SDS011;46580;52.114;11.674;2022-09-21T07:46:18;7.53;;;3.10;;
60730;SDS011;46580;52.114;11.674;2022-09-21T07:48:47;3.93;;;2.83;;
60730;SDS011;46580;52.114;11.674;2022-09-21T07:51:17;6.87;;;3.40;;
60730;SDS011;46580;52.114;11.674;2022-09-21T07:53:42;5.63;;;3.20;;
60730;SDS011;46580;52.114;11.674;2022-09-21T07:56:10;6.70;;;2.90;;
60730;SDS011;46580;52.114;11.674;2022-09-21T07:58:39;7.13;;;3.10;;
60730;SDS011;46580;52.114;11.674;2022-09-21T08:01:24;9.10;;;3.37;;
60730;SDS011;46580;52.114;11.674;2022-09-21T08:03:51;5.13;;;2.70;;
60730;SDS011;46580;52.114;11.674;2022-09-21T08:06:18;5.77;;;2.50;;
60730;SDS011;46580;52.114;11.674;2022-09-21T08:08:45;7.77;;;3.20;;
60730;SDS011;46580;52.114;11.674;2022-09-21T08:11:12;8.53;;;2.70;;
60730;SDS011;46580;52.114;11.674;2022-09-21T08:13:39;7.27;;;2.90;;
60730;SDS011;46580;52.114;11.674;2022-09-21T08:16:04;5.20;;;2.93;;
60730;SDS011;46580;52.114;11.674;2022-09-21T08:18:29;4.93;;;3.00;;
60730;SDS011;46580;52.114;11.674;2022-09-21T08:20:55;5.83;;;2.90;;
60730;SDS011;46580;52.114;11.674;2022-09-21T08:23:22;5.90;;;2.50;;
60730;SDS011;46580;52.114;11.674;2022-09-21T08:25:48;5.80;;;2.80;;
60730;SDS011;46580;52.114;11.674;2022-09-21T08:28:13;4.40;;;2.77;;
60730;SDS011;46580;52.114;11.674;2022-09-21T08:30:39;5.30;;;2.77;;
60730;SDS011;46580;52.114;11.674;2022-09-21T08:33:05;6.57;;;2.53;;
60730;SDS011;46580;52.114;11.674;2022-09-21T08:35:32;8.50;;;3.17;;
60730;SDS011;46580;52.114;11.674;2022-09-21T08:37:58;6.07;;;3.10;;
60730;SDS011;46580;52.114;11.674;2022-09-21T08:40:24;6.20;;;2.70;;
60730;SDS011;46580;52.114;11.674;2022-09-21T08:45:40;5.47;;;2.43;;
60730;SDS011;46580;52.114;11.674;2022-09-21T08:48:13;4.70;;;2.30;;
60730;SDS011;46580;52.114;11.674;2022-09-21T08:50:44;5.00;;;2.43;;
60730;SDS011;46580;52.114;11.674;2022-09-21T08:53:18;3.07;;;1.90;;
60730;SDS011;46580;52.114;11.674;2022-09-21T08:55:47;5.90;;;2.50;;
60730;SDS011;46580;52.114;11.674;2022-09-21T08:58:23;4.63;;;2.70;;
60730;SDS011;46580;52.114;11.674;2022-09-21T09:06:21;3.80;;;2.77;;
60730;SDS011;46580;52.114;11.674;2022-09-21T09:11:45;4.83;;;2.90;;
60730;SDS011;46580;52.114;11.674;2022-09-21T09:14:26;6.13;;;3.00;;
60730;SDS011;46580;52.114;11.674;2022-09-21T09:22:24;5.97;;;2.57;;
60730;SDS011;46580;52.114;11.674;2022-09-21T09:24:54;5.63;;;2.80;;
60730;SDS011;46580;52.114;11.674;2022-09-21T09:27:26;5.73;;;2.27;;
60730;SDS011;46580;52.114;11.674;2022-09-21T09:32:26;4.33;;;1.80;;
60730;SDS011;46580;52.114;11.674;2022-09-21T09:37:50;4.43;;;2.20;;
60730;SDS011;46580;52.114;11.674;2022-09-21T09:43:23;5.30;;;2.57;;
60730;SDS011;46580;52.114;11.674;2022-09-21T09:51:39;4.17;;;1.97;;
60730;SDS011;46580;52.114;11.674;2022-09-21T09:54:04;2.73;;;1.53;;
60730;SDS011;46580;52.114;11.674;2022-09-21T09:56:37;4.37;;;1.80;;
60730;SDS011;46580;52.114;11.674;2022-09-21T09:59:04;5.60;;;1.47;;
60730;SDS011;46580;52.114;11.674;2022-09-21T10:01:41;3.33;;;1.23;;
60730;SDS011;46580;52.114;11.674;2022-09-21T10:04:09;3.40;;;1.50;;
60730;SDS011;46580;52.114;11.674;2022-09-21T10:06:36;3.07;;;1.20;;
60730;SDS011;46580;52.114;11.674;2022-09-21T10:12:31;3.00;;;1.17;;
60730;SDS011;46580;52.114;11.674;2022-09-21T10:14:51;3.20;;;1.30;;
60730;SDS011;46580;52.114;11.674;2022-09-21T10:17:20;6.57;;;1.33;;
60730;SDS011;46580;52.114;11.674;2022-09-21T10:19:48;2.23;;;1.17;;
60730;SDS011;46580;52.114;11.674;2022-09-21T10:22:39;1.20;;;0.80;;
60730;SDS011;46580;52.114;11.674;2022-09-21T10:25:13;3.50;;;0.90;;
60730;SDS011;46580;52.114;11.674;2022-09-21T10:27:42;3.30;;;0.87;;
60730;SDS011;46580;52.114;11.674;2022-09-21T10:32:53;2.77;;;0.70;;
60730;SDS011;46580;52.114;11.674;2022-09-21T10:35:20;2.60;;;0.70;;
60730;SDS011;46580;52.114;11.674;2022-09-21T10:37:46;2.87;;;0.60;;
60730;SDS011;46580;52.114;11.674;2022-09-21T10:42:43;1.17;;;0.80;;
60730;SDS011;46580;52.114;11.674;2022-09-21T10:45:14;2.20;;;0.90;;
60730;SDS011;46580;52.114;11.674;2022-09-21T10:47:42;1.93;;;0.90;;
60730;SDS011;46580;52.114;11.674;2022-09-21T10:50:25;1.80;;;0.70;;
60730;SDS011;46580;52.114;11.674;2022-09-21T10:52:53;1.90;;;0.70;;
60730;SDS011;46580;52.114;11.674;2022-09-21T10:55:22;1.60;;;0.83;;
60730;SDS011;46580;52.114;11.674;2022-09-21T10:57:49;0.83;;;0.50;;
60730;SDS011;46580;52.114;11.674;2022-09-21T11:02:50;1.80;;;0.57;;
60730;SDS011;46580;52.114;11.674;2022-09-21T11:05:20;2.37;;;0.40;;
60730;SDS011;46580;52.114;11.674;2022-09-21T11:07:55;0.97;;;0.57;;
60730;SDS011;46580;52.114;11.674;2022-09-21T11:13:28;0.90;;;0.50;;
60730;SDS011;46580;52.114;11.674;2022-09-21T11:16:00;0.63;;;0.40;;
60730;SDS011;46580;52.114;11.674;2022-09-21T11:18:42;2.97;;;0.60;;
60730;SDS011;46580;52.114;11.674;2022-09-21T11:24:00;0.30;;;0.30;;
60730;SDS011;46580;52.114;11.674;2022-09-21T11:29:25;2.37;;;0.67;;
60730;SDS011;46580;52.114;11.674;2022-09-21T11:34:55;1.53;;;0.63;;
60730;SDS011;46580;52.114;11.674;2022-09-21T11:37:38;1.40;;;0.50;;
60730;SDS011;46580;52.114;11.674;2022-09-21T11:58:12;2.70;;;0.30;;
60730;SDS011;46580;52.114;11.674;2022-09-21T12:00:22;0.83;;;0.10;;
60730;SDS011;46580;52.114;11.674;2022-09-21T12:22:34;1.73;;;0.70;;
60730;SDS011;46580;52.114;11.674;2022-09-21T12:25:04;0.50;;;0.40;;
60730;SDS011;46580;52.114;11.674;2022-09-21T12:27:48;1.70;;;0.60;;
60730;SDS011;46580;52.114;11.674;2022-09-21T12:30:18;0.70;;;0.37;;
60730;SDS011;46580;52.114;11.674;2022-09-21T12:32:56;1.30;;;0.20;;
60730;SDS011;46580;52.114;11.674;2022-09-21T12:35:39;0.73;;;0.20;;
60730;SDS011;46580;52.114;11.674;2022-09-21T12:48:42;0.70;;;0.43;;
60730;SDS011;46580;52.114;11.674;2022-09-21T12:51:11;0.87;;;0.23;;
60730;SDS011;46580;52.114;11.674;2022-09-21T12:53:44;0.60;;;0.40;;
60730;SDS011;46580;52.114;11.674;2022-09-21T13:02:19;0.47;;;0.30;;
60730;SDS011;46580;52.114;11.674;2022-09-21T13:07:47;0.53;;;0.40;;
60730;SDS011;46580;52.114;11.674;2022-09-21T13:12:56;0.60;;;0.40;;
60730;SDS011;46580;52.114;11.674;2022-09-21T13:15:26;0.80;;;0.50;;
60730;SDS011;46580;52.114;11.674;2022-09-21T13:17:56;0.63;;;0.40;;
60730;SDS011;46580;52.114;11.674;2022-09-21T13:20:26;0.67;;;0.30;;
60730;SDS011;46580;52.114;11.674;2022-09-21T13:22:57;0.40;;;0.40;;
60730;SDS011;46580;52.114;11.674;2022-09-21T13:25:26;4.83;;;0.33;;
60730;SDS011;46580;52.114;11.674;2022-09-21T13:32:52;1.77;;;0.80;;
60730;SDS011;46580;52.114;11.674;2022-09-21T13:43:43;3.43;;;0.40;;
60730;SDS011;46580;52.114;11.674;2022-09-21T13:46:43;1.77;;;0.50;;
60730;SDS011;46580;52.114;11.674;2022-09-21T13:48:56;0.40;;;0.37;;
60730;SDS011;46580;52.114;11.674;2022-09-21T13:51:22;1.40;;;0.50;;
60730;SDS011;46580;52.114;11.674;2022-09-21T13:53:49;1.60;;;0.40;;
60730;SDS011;46580;52.114;11.674;2022-09-21T13:56:20;0.40;;;0.30;;
60730;SDS011;46580;52.114;11.674;2022-09-21T13:58:50;0.80;;;0.50;;
60730;SDS011;46580;52.114;11.674;2022-09-21T14:01:19;1.70;;;0.57;;
60730;SDS011;46580;52.114;11.674;2022-09-21T14:03:48;1.20;;;0.53;;
60730;SDS011;46580;52.114;11.674;2022-09-21T14:06:22;0.53;;;0.20;;
60730;SDS011;46580;52.114;11.674;2022-09-21T14:08:53;1.13;;;0.30;;
60730;SDS011;46580;52.114;11.674;2022-09-21T14:11:33;1.70;;;0.40;;
60730;SDS011;46580;52.114;11.674;2022-09-21T14:24:36;0.63;;;0.40;;
60730;SDS011;46580;52.114;11.674;2022-09-21T14:30:13;0.97;;;0.30;;
60730;SDS011;46580;52.114;11.674;2022-09-21T14:32:42;0.47;;;0.37;;
60730;SDS011;46580;52.114;11.674;2022-09-21T14:35:45;1.07;;;0.40;;
60730;SDS011;46580;52.114;11.674;2022-09-21T14:41:01;0.67;;;0.53;;
60730;SDS011;46580;52.114;11.674;2022-09-21T14:43:32;0.97;;;0.30;;
60730;SDS011;46580;52.114;11.674;2022-09-21T15:05:57;3.30;;;0.50;;
60730;SDS011;46580;52.114;11.674;2022-09-21T15:11:46;1.07;;;0.47;;
60730;SDS011;46580;52.114;11.674;2022-09-21T15:17:28;0.57;;;0.30;;
60730;SDS011;46580;52.114;11.674;2022-09-21T15:19:58;0.83;;;0.40;;
60730;SDS011;46580;52.114;11.674;2022-09-21T15:22:25;1.10;;;0.60;;
60730;SDS011;46580;52.114;11.674;2022-09-21T15:27:23;0.60;;;0.40;;
60730;SDS011;46580;52.114;11.674;2022-09-21T15:29:56;0.87;;;0.43;;
60730;SDS011;46580;52.114;11.674;2022-09-21T15:35:20;0.57;;;0.40;;
60730;SDS011;46580;52.114;11.674;2022-09-21T15:37:47;1.13;;;0.60;;
60730;SDS011;46580;52.114;11.674;2022-09-21T15:42:47;1.70;;;0.43;;
60730;SDS011;46580;52.114;11.674;2022-09-21T15:45:26;0.93;;;0.30;;
60730;SDS011;46580;52.114;11.674;2022-09-21T15:47:54;1.00;;;0.63;;
60730;SDS011;46580;52.114;11.674;2022-09-21T15:50:20;1.63;;;0.47;;
60730;SDS011;46580;52.114;11.674;2022-09-21T15:52:58;0.63;;;0.40;;
60730;SDS011;46580;52.114;11.674;2022-09-21T15:55:28;1.37;;;0.40;;
60730;SDS011;46580;52.114;11.674;2022-09-21T15:57:55;3.40;;;0.50;;
60730;SDS011;46580;52.114;11.674;2022-09-21T16:00:23;1.27;;;0.50;;
60730;SDS011;46580;52.114;11.674;2022-09-21T16:02:55;0.70;;;0.40;;
60730;SDS011;46580;52.114;11.674;2022-09-21T16:05:32;0.80;;;0.50;;
60730;SDS011;46580;52.114;11.674;2022-09-21T16:08:16;1.50;;;0.83;;
60730;SDS011;46580;52.114;11.674;2022-09-21T16:10:51;0.93;;;0.50;;
60730;SDS011;46580;52.114;11.674;2022-09-21T16:13:18;0.43;;;0.40;;
60730;SDS011;46580;52.114;11.674;2022-09-21T16:16:10;1.00;;;0.90;;
60730;SDS011;46580;52.114;11.674;2022-09-21T16:18:47;1.70;;;0.80;;
60730;SDS011;46580;52.114;11.674;2022-09-21T16:23:44;2.43;;;0.70;;
60730;SDS011;46580;52.114;11.674;2022-09-21T16:26:19;1.80;;;0.70;;
60730;SDS011;46580;52.114;11.674;2022-09-21T16:28:55;0.93;;;0.53;;
60730;SDS011;46580;52.114;11.674;2022-09-21T16:31:39;0.67;;;0.50;;
60730;SDS011;46580;52.114;11.674;2022-09-21T16:34:50;3.77;;;0.50;;
60730;SDS011;46580;52.114;11.674;2022-09-21T16:36:59;0.53;;;0.40;;
60730;SDS011;46580;52.114;11.674;2022-09-21T16:39:25;0.80;;;0.40;;
60730;SDS011;46580;52.114;11.674;2022-09-21T16:41:53;0.90;;;0.43;;
60730;SDS011;46580;52.114;11.674;2022-09-21T16:44:22;0.53;;;0.47;;
60730;SDS011;46580;52.114;11.674;2022-09-21T16:47:00;0.70;;;0.37;;
60730;SDS011;46580;52.114;11.674;2022-09-21T16:49:28;2.07;;;0.40;;
60730;SDS011;46580;52.114;11.674;2022-09-21T16:51:59;4.37;;;0.70;;
60730;SDS011;46580;52.114;11.674;2022-09-21T16:54:25;0.80;;;0.80;;
60730;SDS011;46580;52.114;11.674;2022-09-21T16:56:55;1.47;;;0.80;;
60730;SDS011;46580;52.114;11.674;2022-09-21T16:59:23;1.77;;;1.20;;
60730;SDS011;46580;52.114;11.674;2022-09-21T17:01:50;1.73;;;0.93;;
60730;SDS011;46580;52.114;11.674;2022-09-21T17:04:17;2.33;;;1.43;;
60730;SDS011;46580;52.114;11.674;2022-09-21T17:06:44;1.47;;;1.00;;
60730;SDS011;46580;52.114;11.674;2022-09-21T17:09:15;1.23;;;0.80;;
60730;SDS011;46580;52.114;11.674;2022-09-21T17:11:45;2.00;;;0.90;;
60730;SDS011;46580;52.114;11.674;2022-09-21T17:14:12;0.60;;;0.60;;
60730;SDS011;46580;52.114;11.674;2022-09-21T17:16:40;1.03;;;0.63;;
60730;SDS011;46580;52.114;11.674;2022-09-21T17:19:08;0.87;;;0.70;;
60730;SDS011;46580;52.114;11.674;2022-09-21T17:21:34;0.80;;;0.60;;
60730;SDS011;46580;52.114;11.674;2022-09-21T17:23:59;2.83;;;0.80;;
60730;SDS011;46580;52.114;11.674;2022-09-21T17:26:25;2.10;;;0.70;;
60730;SDS011;46580;52.114;11.674;2022-09-21T17:28:50;1.30;;;0.70;;
60730;SDS011;46580;52.114;11.674;2022-09-21T17:31:17;0.73;;;0.73;;
60730;SDS011;46580;52.114;11.674;2022-09-21T17:33:47;0.90;;;0.60;;
60730;SDS011;46580;52.114;11.674;2022-09-21T17:36:15;1.43;;;0.80;;
60730;SDS011;46580;52.114;11.674;2022-09-21T17:38:42;1.70;;;0.80;;
60730;SDS011;46580;52.114;11.674;2022-09-21T17:46:41;1.20;;;0.80;;
60730;SDS011;46580;52.114;11.674;2022-09-21T17:49:15;2.73;;;0.80;;
60730;SDS011;46580;52.114;11.674;2022-09-21T17:51:40;0.97;;;0.80;;
60730;SDS011;46580;52.114;11.674;2022-09-21T17:54:25;0.80;;;0.47;;
60730;SDS011;46580;52.114;11.674;2022-09-21T17:57:00;1.43;;;0.77;;
60730;SDS011;46580;52.114;11.674;2022-09-21T17:59:30;1.80;;;0.90;;
60730;SDS011;46580;52.114;11.674;2022-09-21T18:01:58;1.70;;;1.07;;
60730;SDS011;46580;52.114;11.674;2022-09-21T18:04:25;1.90;;;1.00;;
60730;SDS011;46580;52.114;11.674;2022-09-21T18:06:52;4.50;;;1.60;;
60730;SDS011;46580;52.114;11.674;2022-09-21T18:09:18;3.73;;;2.80;;
60730;SDS011;46580;52.114;11.674;2022-09-21T18:11:49;7.67;;;3.33;;
60730;SDS011;46580;52.114;11.674;2022-09-21T18:20:21;4.70;;;3.47;;
60730;SDS011;46580;52.114;11.674;2022-09-21T18:25:50;5.63;;;3.97;;
60730;SDS011;46580;52.114;11.674;2022-09-21T18:30:57;5.83;;;3.83;;
60730;SDS011;46580;52.114;11.674;2022-09-21T18:36:28;11.53;;;8.00;;
60730;SDS011;46580;52.114;11.674;2022-09-21T18:44:43;17.07;;;10.17;;
60730;SDS011;46580;52.114;11.674;2022-09-21T18:47:17;14.53;;;9.93;;
60730;SDS011;46580;52.114;11.674;2022-09-21T18:55:56;12.07;;;8.23;;
60730;SDS011;46580;52.114;11.674;2022-09-21T18:58:12;14.23;;;8.33;;
60730;SDS011;46580;52.114;11.674;2022-09-21T19:00:41;14.73;;;8.50;;
60730;SDS011;46580;52.114;11.674;2022-09-21T19:03:10;10.47;;;7.93;;
60730;SDS011;46580;52.114;11.674;2022-09-21T19:16:58;10.13;;;6.77;;
60730;SDS011;46580;52.114;11.674;2022-09-21T19:19:39;11.77;;;6.33;;